createdAt,value
2019-05-02T00:02:36.753Z,15.15
2019-05-02T00:05:27.399Z,15.88
2019-05-02T00:08:13.138Z,16.00
2019-05-02T00:11:00.308Z,16.95
2019-05-02T00:13:48.039Z,16.95
2019-05-02T00:16:35.608Z,16.70
2019-05-02T00:19:22.787Z,16.07
2019-05-02T00:22:12.299Z,16.20
2019-05-02T00:24:59.479Z,18.00
2019-05-02T00:27:46.692Z,16.82
2019-05-02T00:30:34.688Z,16.67
2019-05-02T00:33:22.964Z,17.90
2019-05-02T00:36:10.363Z,17.65
2019-05-02T00:38:57.533Z,17.17
2019-05-02T00:41:44.765Z,17.82
2019-05-02T00:44:32.364Z,18.15
2019-05-02T00:47:33.437Z,15.98
2019-05-02T00:50:21.660Z,16.87
2019-05-02T00:53:12.038Z,15.40
2019-05-02T00:55:58.025Z,16.05
2019-05-02T00:58:45.520Z,15.93
2019-05-02T01:01:46.684Z,14.83
2019-05-02T01:04:35.756Z,15.68
2019-05-02T01:07:25.566Z,15.10
2019-05-02T01:10:12.325Z,16.32
2019-05-02T01:12:59.529Z,16.02
2019-05-02T01:15:46.723Z,16.07
2019-05-02T01:18:37.108Z,16.17
2019-05-02T01:21:23.367Z,15.50
2019-05-02T01:24:10.609Z,15.10
2019-05-02T01:27:06.530Z,14.87
2019-05-02T01:30:01.641Z,16.75
2019-05-02T01:32:49.053Z,16.40
2019-05-02T01:35:40.959Z,16.62
2019-05-02T01:38:33.801Z,16.80
2019-05-02T01:41:24.122Z,16.75
2019-05-02T01:44:09.536Z,16.62
2019-05-02T01:46:58.895Z,17.00
2019-05-02T01:49:45.941Z,19.27
2019-05-02T01:52:33.107Z,17.92
2019-05-02T01:55:21.123Z,17.37
2019-05-02T01:58:09.869Z,18.45
2019-05-02T02:00:57.142Z,17.57
2019-05-02T02:06:32.163Z,17.95
2019-05-02T02:09:19.713Z,19.52
2019-05-02T02:12:09.775Z,19.87
2019-05-02T02:14:55.665Z,19.05
2019-05-02T02:17:46.830Z,19.45
2019-05-02T02:20:33.506Z,19.00
2019-05-02T02:23:28.468Z,20.12
2019-05-02T02:26:25.730Z,19.90
2019-05-02T02:29:13.180Z,20.70
2019-05-02T02:32:00.770Z,20.00
2019-05-02T02:34:48.169Z,20.62
2019-05-02T02:37:35.695Z,20.35
2019-05-02T02:40:32.580Z,19.65
2019-05-02T02:43:32.184Z,18.95
2019-05-02T02:46:04.106Z,20.75
2019-05-02T02:48:51.290Z,22.00
2019-05-02T02:54:24.670Z,19.57
2019-05-02T02:57:20.551Z,20.05
2019-05-02T03:00:07.885Z,20.05
2019-05-02T03:02:50.109Z,20.57
2019-05-02T03:05:37.975Z,19.92
2019-05-02T03:08:25.979Z,19.62
2019-05-02T03:11:22.344Z,22.73
2019-05-02T03:14:07.481Z,20.45
2019-05-02T03:16:53.837Z,22.13
2019-05-02T03:19:41.637Z,21.55
2019-05-02T03:22:34.861Z,20.32
2019-05-02T03:25:25.003Z,21.90
2019-05-02T03:28:17.333Z,23.22
2019-05-02T03:30:56.101Z,20.48
2019-05-02T03:33:54.417Z,22.13
2019-05-02T03:36:36.059Z,20.85
2019-05-02T03:39:22.439Z,21.85
2019-05-02T03:42:09.970Z,22.48
2019-05-02T03:45:03.816Z,19.65
2019-05-02T03:47:46.573Z,20.75
2019-05-02T03:50:35.376Z,20.92
2019-05-02T03:53:25.238Z,19.75
2019-05-02T03:56:14.086Z,19.82
2019-05-02T03:59:00.596Z,21.48
2019-05-02T04:01:48.384Z,20.45
2019-05-02T04:04:35.497Z,19.73
2019-05-02T04:07:23.321Z,20.95
2019-05-02T04:10:13.386Z,19.27
2019-05-02T04:13:00.427Z,19.62
2019-05-02T04:15:47.525Z,21.40
2019-05-02T04:18:34.693Z,23.22
2019-05-02T04:21:25.901Z,21.17
2019-05-02T04:24:15.764Z,21.73
2019-05-02T04:27:01.020Z,21.93
2019-05-02T04:29:48.169Z,20.57
2019-05-02T04:32:35.508Z,21.70
2019-05-02T04:35:28.736Z,21.37
2019-05-02T04:38:20.006Z,20.77
2019-05-02T04:41:00.353Z,20.40
2019-05-02T04:43:57.404Z,20.15
2019-05-02T04:46:38.807Z,21.77
2019-05-02T04:49:29.976Z,22.15
2019-05-02T04:52:17.171Z,22.48
2019-05-02T04:55:14.630Z,24.65
2019-05-02T04:57:53.208Z,24.67
2019-05-02T05:00:45.126Z,25.62
2019-05-02T05:03:29.574Z,23.25
2019-05-02T05:06:18.916Z,25.45
2019-05-02T05:09:10.397Z,23.98
2019-05-02T05:12:00.886Z,24.35
2019-05-02T05:14:44.460Z,23.95
2019-05-02T05:20:19.345Z,23.45
2019-05-02T05:23:08.251Z,22.67
2019-05-02T05:26:03.426Z,22.80
2019-05-02T05:28:47.659Z,23.40
2019-05-02T05:31:35.131Z,21.87
2019-05-02T05:34:22.798Z,25.30
2019-05-02T05:37:13.480Z,28.02
2019-05-02T05:39:59.853Z,28.67
2019-05-02T05:42:48.109Z,27.42
2019-05-02T05:45:48.636Z,27.15
2019-05-02T05:48:24.390Z,28.45
2019-05-02T05:54:03.002Z,27.85
2019-05-02T05:56:48.290Z,34.78
2019-05-02T05:59:37.806Z,32.00
2019-05-02T06:02:24.350Z,35.33
2019-05-02T06:05:11.758Z,39.20
2019-05-02T06:07:58.998Z,38.83
2019-05-02T06:10:46.441Z,44.20
2019-05-02T06:13:33.829Z,44.93
2019-05-02T06:16:21.220Z,45.73
2019-05-02T06:19:13.046Z,45.28
2019-05-02T06:21:57.665Z,42.88
2019-05-02T06:27:32.794Z,40.25
2019-05-02T06:30:20.208Z,39.73
2019-05-02T06:33:07.176Z,42.08
2019-05-02T06:36:01.122Z,43.42
2019-05-02T06:38:43.057Z,42.05
2019-05-02T06:41:30.733Z,42.70
2019-05-02T06:44:18.422Z,42.48
2019-05-02T06:47:06.843Z,45.38
2019-05-02T06:49:56.145Z,44.73
2019-05-02T06:52:42.838Z,45.70
2019-05-02T06:55:36.158Z,49.42
2019-05-02T06:58:18.360Z,45.55
2019-05-02T07:01:05.858Z,46.37
2019-05-02T07:03:53.241Z,47.23
2019-05-02T07:06:56.187Z,47.17
2019-05-02T07:09:40.307Z,48.15
2019-05-02T07:12:18.497Z,48.87
2019-05-02T07:15:28.144Z,47.85
2019-05-02T07:18:25.468Z,46.73
2019-05-02T07:26:52.078Z,46.77
2019-05-02T07:29:36.892Z,45.30
2019-05-02T07:32:25.158Z,48.38
2019-05-02T07:35:13.044Z,46.55
2019-05-02T07:38:00.300Z,43.20
2019-05-02T07:40:48.148Z,43.13
2019-05-02T07:43:35.449Z,44.73
2019-05-02T07:46:22.662Z,45.63
2019-05-02T07:49:10.105Z,46.55
2019-05-02T07:51:58.921Z,46.02
2019-05-02T07:54:46.454Z,48.48
2019-05-02T07:57:33.820Z,47.38
2019-05-02T08:00:21.432Z,46.37
2019-05-02T08:03:08.719Z,48.83
2019-05-02T08:05:58.537Z,49.77
2019-05-02T08:08:46.169Z,50.35
2019-05-02T08:11:37.234Z,49.83
2019-05-02T08:14:22.011Z,47.55
2019-05-02T08:17:16.159Z,48.78
2019-05-02T08:19:58.408Z,49.05
2019-05-02T08:22:49.027Z,48.92
2019-05-02T08:25:34.449Z,49.65
2019-05-02T08:28:39.791Z,48.45
2019-05-02T08:31:30.044Z,50.20
2019-05-02T08:34:17.939Z,47.90
2019-05-02T08:37:05.286Z,49.30
2019-05-02T08:39:52.687Z,49.10
2019-05-02T08:42:39.862Z,49.20
2019-05-02T08:45:27.399Z,49.48
2019-05-02T08:48:14.507Z,48.10
2019-05-02T08:51:01.953Z,47.62
2019-05-02T08:53:52.119Z,46.30
2019-05-02T08:56:38.626Z,46.60
2019-05-02T08:59:26.197Z,45.65
2019-05-02T09:02:13.634Z,45.25
2019-05-02T09:05:04.647Z,47.58
2019-05-02T09:07:49.585Z,46.75
2019-05-02T09:10:41.605Z,46.68
2019-05-02T09:13:29.118Z,44.83
2019-05-02T09:16:14.673Z,45.58
2019-05-02T09:19:02.747Z,43.05
2019-05-02T09:21:52.567Z,41.85
2019-05-02T09:24:42.353Z,41.15
2019-05-02T09:27:28.099Z,43.13
2019-05-02T09:30:17.151Z,41.10
2019-05-02T09:33:06.599Z,39.35
2019-05-02T09:35:53.330Z,38.45
2019-05-02T09:38:42.352Z,39.75
2019-05-02T09:41:34.432Z,40.15
2019-05-02T09:44:18.827Z,40.25
2019-05-02T09:47:06.216Z,39.58
2019-05-02T09:50:12.830Z,38.83
2019-05-02T09:53:01.955Z,41.13
2019-05-02T09:55:53.505Z,37.38
2019-05-02T09:58:38.353Z,37.33
2019-05-02T10:01:31.706Z,36.00
2019-05-02T10:04:18.672Z,37.63
2019-05-02T10:07:06.061Z,36.48
2019-05-02T10:09:53.129Z,36.68
2019-05-02T10:12:42.590Z,34.70
2019-05-02T10:15:29.393Z,36.85
2019-05-02T10:18:19.636Z,36.10
2019-05-02T10:21:07.728Z,38.00
2019-05-02T10:23:59.413Z,37.40
2019-05-02T10:26:43.085Z,35.78
2019-05-02T10:29:32.724Z,36.75
2019-05-02T10:32:19.409Z,34.53
2019-05-02T10:35:09.093Z,33.53
2019-05-02T10:37:56.593Z,35.20
2019-05-02T10:40:43.685Z,32.42
2019-05-02T10:43:32.764Z,28.42
2019-05-02T10:46:37.875Z,27.25
2019-05-02T10:49:31.928Z,26.57
2019-05-02T10:52:21.619Z,24.87
2019-05-02T10:55:07.633Z,23.55
2019-05-02T10:57:54.969Z,24.37
2019-05-02T11:00:45.229Z,23.83
2019-05-02T11:03:32.788Z,24.20
2019-05-02T11:06:22.078Z,24.77
2019-05-02T11:09:12.096Z,23.35
2019-05-02T11:12:02.445Z,19.40
2019-05-02T11:14:51.662Z,20.27
2019-05-02T11:17:43.652Z,20.17
2019-05-02T11:20:31.870Z,20.90
2019-05-02T11:23:19.169Z,21.48
2019-05-02T11:26:06.428Z,18.27
2019-05-02T11:28:53.526Z,20.27
2019-05-02T11:31:42.772Z,24.07
2019-05-02T11:34:29.681Z,18.15
2019-05-02T11:37:16.497Z,16.90
2019-05-02T11:40:07.050Z,16.65
2019-05-02T11:42:57.263Z,15.68
2019-05-02T11:45:44.091Z,16.97
2019-05-02T11:48:32.019Z,18.37
2019-05-02T11:51:19.306Z,16.87
2019-05-02T11:54:09.351Z,15.08
2019-05-02T11:56:55.310Z,16.60
2019-05-02T11:59:42.571Z,17.02
2019-05-02T12:02:32.001Z,20.92
2019-05-02T12:05:22.205Z,22.42
2019-05-02T12:08:12.070Z,20.48
2019-05-02T12:11:01.238Z,18.55
2019-05-02T12:13:51.610Z,17.10
2019-05-02T12:16:36.095Z,17.12
2019-05-02T12:19:23.217Z,18.35
2019-05-02T12:22:12.905Z,18.00
2019-05-02T12:24:59.549Z,16.67
2019-05-02T12:27:46.569Z,16.80
2019-05-02T12:30:37.678Z,16.00
2019-05-02T12:33:24.274Z,15.53
2019-05-02T12:36:12.042Z,17.32
2019-05-02T12:38:59.476Z,16.95
2019-05-02T12:41:46.780Z,18.98
2019-05-02T12:44:33.912Z,20.48
2019-05-02T12:47:22.541Z,20.48
2019-05-02T12:50:09.627Z,19.52
2019-05-02T12:52:56.484Z,16.30
2019-05-02T12:55:43.984Z,16.90
2019-05-02T12:58:32.567Z,18.65
2019-05-02T13:01:21.655Z,18.15
2019-05-02T13:04:12.271Z,19.10
2019-05-02T13:06:58.953Z,19.82
2019-05-02T13:09:46.547Z,17.82
2019-05-02T13:12:35.511Z,16.50
2019-05-02T13:15:23.573Z,16.75
2019-05-02T13:18:12.466Z,17.37
2019-05-02T13:21:02.265Z,18.05
2019-05-02T13:23:57.019Z,18.10
2019-05-02T13:26:44.071Z,18.55
2019-05-02T13:29:32.187Z,19.87
2019-05-02T13:32:21.803Z,17.70
2019-05-02T13:35:14.567Z,18.27
2019-05-02T13:38:02.919Z,17.85
2019-05-02T13:40:51.742Z,16.85
2019-05-02T13:43:41.878Z,14.95
2019-05-02T13:46:29.550Z,17.77
2019-05-02T13:49:16.326Z,14.28
2019-05-02T13:52:03.638Z,12.90
2019-05-02T13:54:52.257Z,11.83
2019-05-02T13:57:45.343Z,13.10
2019-05-02T14:00:46.444Z,12.47
2019-05-02T14:03:33.282Z,13.50
2019-05-02T14:06:22.044Z,13.95
2019-05-02T14:09:19.845Z,13.93
2019-05-02T14:12:15.757Z,14.35
2019-05-02T14:15:03.207Z,14.63
2019-05-02T14:17:52.361Z,15.20
2019-05-02T14:20:39.205Z,16.65
2019-05-02T14:23:26.978Z,16.70
2019-05-02T14:26:27.225Z,19.12
2019-05-02T14:29:02.646Z,20.23
2019-05-02T14:31:51.800Z,19.50
2019-05-02T14:34:49.388Z,19.20
2019-05-02T14:37:36.605Z,19.12
2019-05-02T14:40:25.792Z,17.90
2019-05-02T14:43:14.643Z,16.95
2019-05-02T14:46:02.896Z,18.73
2019-05-02T14:48:52.327Z,16.62
2019-05-02T14:51:41.644Z,15.32
2019-05-02T14:54:28.541Z,16.00
2019-05-02T14:57:22.052Z,17.07
2019-05-02T15:00:09.051Z,14.50
2019-05-02T15:02:55.937Z,16.32
2019-05-02T15:05:42.767Z,18.05
2019-05-02T15:08:32.115Z,17.45
2019-05-02T15:11:18.552Z,16.40
2019-05-02T15:14:05.852Z,17.77
2019-05-02T15:16:56.609Z,17.62
2019-05-02T15:19:42.744Z,17.00
2019-05-02T15:22:33.139Z,16.73
2019-05-02T15:25:18.672Z,15.45
2019-05-02T15:28:07.697Z,17.02
2019-05-02T15:31:08.724Z,16.30
2019-05-02T15:34:06.474Z,15.85
2019-05-02T15:36:53.936Z,15.18
2019-05-02T15:42:29.817Z,16.07
2019-05-02T15:45:17.222Z,15.95
2019-05-02T15:48:04.816Z,15.85
2019-05-02T15:50:55.345Z,15.30
2019-05-02T15:54:05.331Z,15.63
2019-05-02T15:57:00.164Z,15.53
2019-05-02T15:59:44.780Z,14.60
2019-05-02T16:02:32.082Z,16.17
2019-05-02T16:05:21.664Z,16.70
2019-05-02T16:08:09.106Z,15.55
2019-05-02T16:10:56.297Z,15.10
2019-05-02T16:13:46.986Z,14.38
2019-05-02T16:16:36.558Z,15.18
2019-05-02T16:19:28.825Z,14.25
2019-05-02T16:22:18.614Z,13.60
2019-05-02T16:25:07.251Z,13.90
2019-05-02T16:27:57.417Z,12.95
2019-05-02T16:30:47.635Z,11.40
2019-05-02T16:33:33.511Z,11.22
2019-05-02T16:36:26.038Z,11.33
2019-05-02T16:39:11.211Z,11.83
2019-05-02T16:41:58.859Z,11.48
2019-05-02T16:44:45.838Z,11.45
2019-05-02T16:47:33.187Z,10.50
2019-05-02T16:50:22.719Z,10.85
2019-05-02T16:53:09.397Z,10.58
2019-05-02T16:55:58.277Z,10.48
2019-05-02T16:58:47.059Z,10.32
2019-05-02T17:01:34.445Z,10.03
2019-05-02T17:04:22.352Z,9.95
2019-05-02T17:07:11.658Z,9.20
2019-05-02T17:10:03.137Z,9.15
2019-05-02T17:12:56.603Z,8.88
2019-05-02T17:15:42.794Z,8.10
2019-05-02T17:18:30.278Z,8.60
2019-05-02T17:21:17.150Z,8.73
2019-05-02T17:24:04.733Z,8.08
2019-05-02T17:26:51.964Z,7.97
2019-05-02T17:29:40.995Z,7.92
2019-05-02T17:32:28.829Z,7.12
2019-05-02T17:35:16.378Z,7.15
2019-05-02T17:38:06.078Z,7.28
2019-05-02T17:41:04.714Z,6.95
2019-05-02T17:43:49.041Z,6.30
2019-05-02T17:46:36.736Z,6.50
2019-05-02T17:49:34.900Z,6.90
2019-05-02T17:52:26.792Z,6.45
2019-05-02T17:55:12.084Z,7.25
2019-05-02T17:57:59.292Z,6.47
2019-05-02T18:00:54.537Z,7.22
2019-05-02T18:03:36.567Z,7.20
2019-05-02T18:06:32.463Z,7.53
2019-05-02T18:09:15.476Z,7.15
2019-05-02T18:12:01.615Z,9.33
2019-05-02T18:14:53.126Z,7.40
2019-05-02T18:17:37.536Z,7.37
2019-05-02T18:20:28.557Z,9.83
2019-05-02T18:23:18.782Z,10.32
2019-05-02T18:26:06.416Z,8.53
2019-05-02T18:28:57.219Z,9.98
2019-05-02T18:31:47.281Z,8.40
2019-05-02T18:34:32.032Z,8.90
2019-05-02T18:37:19.166Z,8.50
2019-05-02T18:40:07.324Z,9.40
2019-05-02T18:42:56.615Z,10.10
2019-05-02T18:45:43.036Z,10.25
2019-05-02T18:48:31.883Z,10.35
2019-05-02T18:51:19.262Z,10.32
2019-05-02T18:54:07.671Z,10.80
2019-05-02T18:56:55.597Z,9.83
2019-05-02T18:59:42.838Z,10.30
2019-05-02T19:02:32.775Z,11.40
2019-05-02T19:05:21.145Z,10.68
2019-05-02T19:08:08.728Z,11.20
2019-05-02T19:11:05.919Z,11.38
2019-05-02T19:13:48.017Z,11.73
2019-05-02T19:16:38.063Z,13.68
2019-05-02T19:19:27.401Z,15.45
2019-05-02T19:22:17.529Z,16.62
2019-05-02T19:25:06.318Z,15.80
2019-05-02T19:28:04.028Z,14.43
2019-05-02T19:30:51.990Z,13.43
2019-05-02T19:33:42.727Z,13.18
2019-05-02T19:36:29.372Z,11.22
2019-05-02T19:39:16.996Z,10.25
2019-05-02T19:42:04.307Z,9.10
2019-05-02T19:44:52.790Z,9.60
2019-05-02T19:47:56.473Z,9.73
2019-05-02T19:50:44.060Z,8.50
2019-05-02T19:53:33.893Z,10.00
2019-05-02T19:56:21.959Z,8.18
2019-05-02T19:59:09.697Z,7.58
2019-05-02T20:02:02.521Z,7.15
2019-05-02T20:04:47.649Z,6.65
2019-05-02T20:07:34.759Z,6.45
2019-05-02T20:10:22.751Z,6.75
2019-05-02T20:13:11.989Z,7.78
2019-05-02T20:16:05.784Z,7.00
2019-05-02T20:18:53.012Z,7.08
2019-05-02T20:21:57.189Z,6.62
2019-05-02T20:24:58.318Z,7.80
2019-05-02T20:27:42.439Z,15.85
2019-05-02T20:30:29.697Z,13.13
2019-05-02T20:33:18.785Z,8.98
2019-05-02T20:36:08.124Z,6.62
2019-05-02T20:39:02.305Z,5.83
2019-05-02T20:41:50.353Z,5.95
2019-05-02T20:44:37.530Z,6.08
2019-05-02T20:47:26.553Z,5.87
2019-05-02T20:50:15.930Z,4.97
2019-05-02T20:53:03.973Z,3.98
2019-05-02T20:55:52.394Z,3.70
2019-05-02T20:58:41.824Z,4.47
2019-05-02T21:01:29.390Z,4.22
2019-05-02T21:04:16.941Z,4.55
2019-05-02T21:07:07.080Z,4.67
2019-05-02T21:10:12.540Z,5.12
2019-05-02T21:13:01.957Z,6.15
2019-05-02T21:15:48.681Z,6.70
2019-05-02T21:18:35.931Z,7.20
2019-05-02T21:21:25.189Z,7.17
2019-05-02T21:24:12.500Z,6.47
2019-05-02T21:27:04.348Z,7.70
2019-05-02T21:29:53.805Z,7.70
2019-05-02T21:32:42.635Z,7.03
2019-05-02T21:35:34.304Z,7.42
2019-05-02T21:38:22.585Z,6.28
2019-05-02T21:41:11.430Z,4.70
2019-05-02T21:43:58.963Z,4.00
2019-05-02T21:46:49.107Z,3.80
2019-05-02T21:49:45.402Z,3.02
2019-05-02T21:52:42.285Z,2.95
2019-05-02T21:55:32.338Z,2.15
2019-05-02T21:58:21.536Z,2.60
2019-05-02T22:01:12.749Z,3.70
2019-05-02T22:03:59.684Z,4.50
2019-05-02T22:06:47.058Z,4.95
2019-05-02T22:09:34.421Z,7.33
2019-05-02T22:12:22.567Z,4.40
2019-05-02T22:15:12.766Z,4.25
2019-05-02T22:18:01.620Z,4.22
2019-05-02T22:20:48.881Z,4.15
2019-05-02T22:23:36.246Z,4.58
2019-05-02T22:26:23.632Z,3.52
2019-05-02T22:29:12.318Z,3.55
2019-05-02T22:32:00.037Z,3.15
2019-05-02T22:34:46.917Z,2.87
2019-05-02T22:37:34.126Z,3.35
2019-05-02T22:40:21.818Z,3.20
2019-05-02T22:43:08.790Z,3.90
2019-05-02T22:45:55.948Z,3.72
2019-05-02T22:51:29.393Z,3.33
2019-05-02T22:57:04.418Z,3.83
2019-05-02T22:59:52.167Z,4.60
2019-05-02T23:02:39.410Z,6.12
2019-05-02T23:05:26.995Z,6.05
2019-05-02T23:08:14.397Z,6.42
2019-05-02T23:11:03.408Z,6.72
2019-05-02T23:13:51.776Z,6.92
2019-05-02T23:16:39.306Z,7.60
2019-05-02T23:19:26.606Z,7.85
2019-05-02T23:25:04.209Z,7.28
2019-05-02T23:27:53.286Z,7.62
2019-05-02T23:30:42.340Z,8.43
2019-05-02T23:33:51.470Z,8.78
2019-05-02T23:36:41.626Z,9.53
2019-05-02T23:39:29.038Z,8.68
2019-05-02T23:42:16.403Z,8.83
2019-05-02T23:47:52.408Z,8.85
2019-05-02T23:50:39.524Z,10.43
2019-05-02T23:53:31.575Z,9.73
2019-05-02T23:56:18.455Z,10.58
